Time;durP1;ratioP1;P1;durP2;ratioP2;P2;SDS_P1;SDS_P2;PMS_P1;PMS_P2;Temp;Humidity;BMP_temperature;BMP_pressure;BME280_temperature;BME280_humidity;BME280_pressure;Samples;Min_cycle;Max_cycle;Signal;HPM_P1;HPM_P2
2022/06/25 00:00:05;;;;;;;4.30;2.10;;;;;;;24.17;36.99;99672.97;4973591;28;20034;-72
2022/06/25 00:02:34;;;;;;;3.88;2.20;;;;;;;24.13;37.07;99672.53;4976395;28;20050;-72
2022/06/25 00:07:49;;;;;;;3.15;1.77;;;;;;;23.90;37.77;99656.31;4977243;28;20391;-72
2022/06/25 00:10:17;;;;;;;4.93;1.90;;;;;;;23.80;38.08;99644.91;4976817;28;20039;-73
2022/06/25 00:12:44;;;;;;;4.45;1.80;;;;;;;23.69;38.43;99645.41;4977154;28;20498;-72
2022/06/25 00:15:12;;;;;;;5.90;2.45;;;;;;;23.61;38.46;99657.25;4976969;28;20054;-73
2022/06/25 00:17:41;;;;;;;8.00;2.33;;;;;;;23.51;39.01;99666.72;4977265;28;20057;-71
2022/06/25 00:20:10;;;;;;;5.78;2.10;;;;;;;23.33;39.53;99665.22;4976778;28;20039;-71
2022/06/25 00:22:38;;;;;;;4.15;2.00;;;;;;;23.41;39.66;99670.56;4976702;28;20137;-71
2022/06/25 00:25:09;;;;;;;4.00;2.17;;;;;;;23.36;39.80;99670.31;4976979;28;20039;-78
2022/06/25 00:27:37;;;;;;;4.82;2.15;;;;;;;23.36;40.08;99664.88;4977281;28;20039;-71
2022/06/25 00:30:07;;;;;;;4.70;2.15;;;;;;;23.31;40.60;99672.75;4976994;28;20050;-71
2022/06/25 00:32:36;;;;;;;4.57;1.95;;;;;;;23.23;41.09;99672.81;4976932;28;20126;-71
2022/06/25 00:35:06;;;;;;;6.05;2.15;;;;;;;23.10;42.02;99676.22;4976586;28;20046;-72
2022/06/25 00:37:34;;;;;;;5.57;2.30;;;;;;;23.04;41.93;99678.81;4976503;28;20415;-70
2022/06/25 00:40:02;;;;;;;5.50;2.30;;;;;;;23.02;42.19;99672.72;4976559;28;20051;-70
2022/06/25 00:42:32;;;;;;;3.58;2.10;;;;;;;23.00;42.22;99680.25;4976232;28;20049;-71
2022/06/25 00:45:00;;;;;;;3.88;2.10;;;;;;;23.07;42.41;99681.19;4976432;28;20468;-70
2022/06/25 00:47:28;;;;;;;7.43;2.40;;;;;;;23.19;42.44;99662.53;4976306;28;20050;-71
2022/06/25 00:49:57;;;;;;;5.45;2.33;;;;;;;23.18;42.37;99667.13;4976295;28;20090;-71
2022/06/25 00:52:26;;;;;;;6.22;2.65;;;;;;;23.18;42.67;99658.13;4976148;28;20423;-70
2022/06/25 00:54:56;;;;;;;5.53;2.60;;;;;;;23.20;42.82;99665.06;4976463;28;20034;-71
2022/06/25 00:57:26;;;;;;;5.38;2.33;;;;;;;23.22;43.18;99668.41;4976057;28;20085;-71
2022/06/25 01:00:02;;;;;;;9.05;2.42;;;;;;;23.15;43.58;99667.47;4976235;28;20552;-71
2022/06/25 01:02:30;;;;;;;;;;;;;;;23.05;43.78;99683.22;4976288;28;20047;-71
2022/06/25 01:04:58;;;;;;;3.58;2.05;;;;;;;23.11;43.11;99690.66;4976066;28;19941;-71
2022/06/25 01:07:27;;;;;;;4.05;2.20;;;;;;;23.10;42.83;99689.81;4975952;28;20467;-75
2022/06/25 01:09:57;;;;;;;5.00;1.98;;;;;;;23.15;42.46;99694.69;4976111;28;20121;-75
2022/06/25 01:12:25;;;;;;;4.22;2.10;;;;;;;23.04;42.00;99697.88;4975462;28;20102;-75
2022/06/25 01:15:03;;;;;;;4.43;2.30;;;;;;;23.01;41.41;99698.25;4975261;28;20137;-75
2022/06/25 01:17:31;;;;;;;4.57;2.30;;;;;;;23.13;40.55;99703.03;4975866;28;20042;-75
2022/06/25 01:20:01;;;;;;;6.03;2.13;;;;;;;23.19;40.84;99698.72;4975837;28;20039;-75
2022/06/25 01:22:30;;;;;;;5.03;2.15;;;;;;;23.19;41.55;99704.19;4975527;28;20045;-75
2022/06/25 01:24:58;;;;;;;8.85;2.10;;;;;;;23.18;40.72;99699.78;4975804;28;20456;-76
2022/06/25 01:27:26;;;;;;;6.43;3.00;;;;;;;23.31;40.82;99699.09;4975526;28;20126;-76
2022/06/25 01:29:55;;;;;;;6.60;2.80;;;;;;;23.37;40.83;99696.50;4975593;28;20047;-75
2022/06/25 01:32:23;;;;;;;6.10;2.30;;;;;;;23.40;40.54;99692.53;4975205;28;20078;-75
2022/06/25 01:34:51;;;;;;;7.45;2.35;;;;;;;23.32;40.84;99679.88;4975878;28;20046;-75
2022/06/25 01:37:21;;;;;;;5.07;2.40;;;;;;;23.30;41.46;99681.09;4975515;28;20046;-75
2022/06/25 01:39:53;;;;;;;5.90;2.28;;;;;;;23.28;42.04;99681.28;4975448;28;20121;-76
2022/06/25 01:45:04;;;;;;;3.80;2.10;;;;;;;23.23;41.57;99691.88;4963143;28;20484;-75
2022/06/25 01:47:34;;;;;;;5.53;2.22;;;;;;;23.14;41.82;99701.16;4975022;28;20039;-75
2022/06/25 01:50:04;;;;;;;3.22;2.10;;;;;;;23.03;41.82;99691.59;4975318;28;20101;-75
2022/06/25 01:52:32;;;;;;;6.63;2.72;;;;;;;23.07;42.49;99708.41;4974874;28;20082;-75
2022/06/25 01:55:02;;;;;;;4.90;2.20;;;;;;;23.14;42.28;99710.16;4975310;28;20043;-71
2022/06/25 01:57:31;;;;;;;5.13;2.15;;;;;;;23.10;42.24;99710.72;4975305;28;20049;-71
2022/06/25 02:00:06;;;;;;;4.32;1.92;;;;;;;22.99;42.13;99716.63;4975276;28;20047;-71
2022/06/25 02:02:37;;;;;;;3.92;2.38;;;;;;;23.19;41.95;99703.34;4974930;28;20472;-71
2022/06/25 02:05:05;;;;;;;4.15;2.28;;;;;;;23.31;41.02;99705.38;4974881;28;20038;-71
2022/06/25 02:07:33;;;;;;;4.15;2.20;;;;;;;22.96;41.51;99696.06;4974822;28;20435;-71
2022/06/25 02:10:06;;;;;;;4.65;2.10;;;;;;;23.00;41.43;99696.56;4975086;28;20053;-71
2022/06/25 02:12:35;;;;;;;3.63;2.17;;;;;;;23.06;40.96;99690.34;4974650;28;20035;-71
2022/06/25 02:15:04;;;;;;;6.20;2.30;;;;;;;23.11;40.88;99698.81;4957731;28;20051;-73
2022/06/25 02:17:33;;;;;;;3.83;2.17;;;;;;;23.03;40.87;99707.06;4974446;28;20039;-73
2022/06/25 02:20:02;;;;;;;7.35;2.00;;;;;;;22.90;41.02;99706.84;4974741;28;20046;-73
2022/06/25 02:22:31;;;;;;;3.90;2.15;;;;;;;23.04;40.30;99706.03;4974654;28;20047;-73
2022/06/25 02:25:00;;;;;;;5.97;1.95;;;;;;;23.19;39.55;99706.91;4974891;28;20046;-73
2022/06/25 02:27:29;;;;;;;4.40;2.25;;;;;;;23.10;40.08;99697.13;4974396;28;20395;-73
2022/06/25 02:29:58;;;;;;;5.20;1.75;;;;;;;22.98;40.58;99694.03;4974476;28;20511;-73
2022/06/25 02:32:27;;;;;;;4.38;2.00;;;;;;;22.91;41.47;99692.22;4974295;28;20060;-73
2022/06/25 02:34:55;;;;;;;5.45;1.95;;;;;;;22.85;41.67;99700.09;4974637;28;20105;-74
2022/06/25 02:37:23;;;;;;;6.55;2.53;;;;;;;22.97;41.09;99699.63;4974518;28;20043;-74
2022/06/25 02:39:51;;;;;;;5.43;1.90;;;;;;;22.95;41.07;99693.53;4974501;28;20435;-73
2022/06/25 02:42:19;;;;;;;3.30;2.00;;;;;;;22.90;41.64;99685.94;4974176;28;20043;-73
2022/06/25 02:44:49;;;;;;;4.90;1.77;;;;;;;22.77;41.86;99685.69;4974341;28;20582;-74
2022/06/25 02:47:17;;;;;;;6.47;2.17;;;;;;;22.74;42.25;99675.19;4974494;28;20122;-74
2022/06/25 02:49:45;;;;;;;6.03;2.00;;;;;;;22.77;42.12;99675.66;4974498;28;20054;-73
2022/06/25 02:52:13;;;;;;;4.55;2.17;;;;;;;22.80;41.97;99674.47;4974378;28;20053;-73
2022/06/25 02:54:41;;;;;;;4.05;2.22;;;;;;;22.69;41.67;99683.91;4974359;28;20046;-74
2022/06/25 03:00:06;;;;;;;4.90;2.00;;;;;;;22.51;42.06;99683.41;4974348;28;20042;-74
2022/06/25 03:02:35;;;;;;;3.67;2.13;;;;;;;22.57;41.80;99691.63;4974210;28;20129;-69
2022/06/25 03:05:04;;;;;;;4.20;2.00;;;;;;;22.30;43.45;99694.94;4974417;28;20483;-74
2022/06/25 03:07:32;;;;;;;4.70;2.38;;;;;;;22.27;44.57;99693.41;4973956;28;20043;-76
2022/06/25 03:10:05;;;;;;;4.47;2.10;;;;;;;22.23;45.09;99693.97;4974432;28;20122;-75
2022/06/25 03:12:33;;;;;;;6.13;2.38;;;;;;;22.07;45.89;99699.50;4956779;28;20387;-75
2022/06/25 03:15:01;;;;;;;5.28;2.28;;;;;;;21.92;46.12;99702.13;4974244;28;20476;-72
2022/06/25 03:17:31;;;;;;;5.35;2.20;;;;;;;21.85;46.17;99712.00;4973898;28;20464;-72
2022/06/25 03:20:00;;;;;;;3.97;2.20;;;;;;;21.92;45.87;99711.09;4974039;28;20038;-73
2022/06/25 03:22:28;;;;;;;5.25;2.15;;;;;;;22.02;45.88;99710.88;4973816;28;20042;-70
2022/06/25 03:24:56;;;;;;;4.65;2.20;;;;;;;22.08;45.93;99707.47;4974258;28;20502;-70
2022/06/25 03:27:24;;;;;;;4.43;2.05;;;;;;;22.14;45.91;99712.19;4973905;28;20460;-71
2022/06/25 03:29:54;;;;;;;8.75;2.53;;;;;;;22.24;45.54;99706.53;4973890;28;20062;-70
2022/06/25 03:32:22;;;;;;;5.80;2.47;;;;;;;22.45;43.84;99703.97;4973945;28;20113;-71
2022/06/25 03:34:52;;;;;;;6.75;2.20;;;;;;;22.47;45.27;99714.66;4974270;28;20035;-70
2022/06/25 03:37:20;;;;;;;5.50;2.20;;;;;;;22.61;44.97;99707.59;4975948;28;20090;-71
2022/06/25 03:39:48;;;;;;;5.82;2.40;;;;;;;22.68;44.34;99709.41;4977710;28;20053;-71
2022/06/25 03:42:16;;;;;;;4.70;2.28;;;;;;;22.85;43.23;99702.81;4977666;28;20042;-71
2022/06/25 03:44:44;;;;;;;5.40;2.22;;;;;;;22.87;43.39;99704.50;4977522;28;20043;-71
2022/06/25 03:47:12;;;;;;;5.53;2.15;;;;;;;23.32;43.28;99706.22;4977366;28;20051;-73
2022/06/25 03:49:41;;;;;;;7.72;2.67;;;;;;;23.34;43.13;99698.72;4977470;28;20046;-73
2022/06/25 03:52:10;;;;;;;6.07;2.40;;;;;;;24.46;40.45;99700.13;4977378;28;20102;-73
2022/06/25 03:54:38;;;;;;;9.07;2.20;;;;;;;24.93;38.87;99701.38;4977178;28;20042;-74
2022/06/25 03:57:06;;;;;;;4.15;1.90;;;;;;;25.85;37.23;99700.25;4977400;28;20050;-74
2022/06/25 03:59:36;;;;;;;4.68;1.98;;;;;;;25.80;37.15;99703.63;4977342;28;20043;-74
2022/06/25 04:02:05;;;;;;;5.30;2.28;;;;;;;26.73;35.67;99703.81;4977583;28;20054;-74
2022/06/25 04:04:33;;;;;;;7.15;2.40;;;;;;;26.48;35.98;99698.97;4976906;28;20105;-75
2022/06/25 04:07:01;;;;;;;5.10;2.10;;;;;;;25.43;38.10;99712.22;4977396;28;20043;-75
2022/06/25 04:09:32;;;;;;;7.35;2.45;;;;;;;25.13;38.08;99719.78;4977072;28;20157;-76
2022/06/25 04:12:00;;;;;;;5.32;2.30;;;;;;;24.16;39.85;99714.88;4977092;28;20094;-75
2022/06/25 04:14:29;;;;;;;3.92;2.00;;;;;;;23.65;41.02;99717.63;4959568;28;20050;-74
2022/06/25 04:16:57;;;;;;;5.35;2.20;;;;;;;23.25;41.96;99714.28;4977626;28;20101;-74
2022/06/25 04:19:25;;;;;;;4.13;2.35;;;;;;;22.81;42.90;99717.78;4976784;28;20066;-76
2022/06/25 04:21:53;;;;;;;4.30;2.25;;;;;;;22.92;42.88;99726.56;4976946;28;20034;-73
2022/06/25 04:24:21;;;;;;;4.97;2.40;;;;;;;22.63;43.32;99736.28;4976804;28;20063;-75
2022/06/25 04:26:51;;;;;;;7.18;2.30;;;;;;;22.90;42.90;99739.50;4976799;28;20373;-73
2022/06/25 04:29:18;;;;;;;3.75;2.13;;;;;;;22.57;43.54;99734.28;4977973;28;20085;-75
2022/06/25 04:31:46;;;;;;;5.07;2.17;;;;;;;22.82;43.49;99733.06;4972545;28;20039;-74
2022/06/25 04:34:15;;;;;;;6.63;2.30;;;;;;;22.93;43.21;99726.34;4976702;28;20043;-74
2022/06/25 04:36:43;;;;;;;3.28;2.25;;;;;;;23.10;42.83;99729.78;4976431;28;20042;-74
2022/06/25 04:39:11;;;;;;;5.70;2.22;;;;;;;23.24;42.34;99726.22;4976738;28;20474;-75
2022/06/25 04:41:39;;;;;;;4.40;2.08;;;;;;;23.40;42.43;99726.03;4958869;28;20098;-75
2022/06/25 04:44:09;;;;;;;4.28;2.50;;;;;;;24.32;40.75;99725.56;4957274;29;20039;-73
2022/06/25 04:46:37;;;;;;;4.25;2.40;;;;;;;23.90;41.97;99732.59;4957046;29;20050;-75
2022/06/25 04:49:06;;;;;;;4.18;2.22;;;;;;;23.94;41.47;99731.19;4956048;28;20047;-75
2022/06/25 04:51:34;;;;;;;3.97;2.35;;;;;;;23.73;41.89;99741.16;4956841;29;20047;-74
2022/06/25 04:54:03;;;;;;;5.05;2.30;;;;;;;24.43;40.27;99743.28;4956953;29;20043;-74
2022/06/25 04:56:31;;;;;;;5.65;2.38;;;;;;;24.49;39.90;99747.94;4956960;29;20070;-74
2022/06/25 04:58:59;;;;;;;4.05;2.10;;;;;;;24.12;41.04;99751.69;4956925;29;20476;-75
2022/06/25 05:01:29;;;;;;;5.10;2.40;;;;;;;24.94;39.68;99745.84;4956872;29;20039;-74
2022/06/25 05:03:59;;;;;;;5.97;2.03;;;;;;;25.02;39.33;99753.94;4966817;28;20074;-77
2022/06/25 05:06:27;;;;;;;6.18;2.30;;;;;;;25.81;37.88;99754.47;4975839;28;20039;-76
2022/06/25 05:08:55;;;;;;;3.97;2.13;;;;;;;26.39;36.48;99763.13;4975908;28;20043;-77
2022/06/25 05:11:23;;;;;;;3.53;2.00;;;;;;;25.79;37.25;99756.56;4975991;28;20129;-82
2022/06/25 05:13:51;;;;;;;5.05;2.30;;;;;;;27.10;35.02;99754.38;4975859;28;20121;-76
2022/06/25 05:16:19;;;;;;;3.58;2.28;;;;;;;28.72;32.28;99747.91;4975910;28;20050;-74
2022/06/25 05:18:49;;;;;;;4.38;2.25;;;;;;;29.47;30.69;99745.16;4975676;28;20042;-75
2022/06/25 05:21:18;;;;;;;4.10;2.17;;;;;;;28.74;31.27;99745.75;4975913;28;20035;-74
2022/06/25 05:23:46;;;;;;;4.63;2.30;;;;;;;29.97;29.90;99751.38;4975747;28;20043;-74
2022/06/25 05:26:14;;;;;;;4.97;2.33;;;;;;;30.82;29.13;99747.69;4975649;28;20479;-74
2022/06/25 05:28:42;;;;;;;4.82;2.25;;;;;;;30.80;29.20;99755.34;4975338;28;20551;-75
2022/06/25 05:31:10;;;;;;;4.57;2.30;;;;;;;31.15;28.42;99750.72;4972772;28;20481;-73
2022/06/25 05:33:39;;;;;;;4.25;2.10;;;;;;;31.11;28.01;99752.28;4955975;29;20043;-74
2022/06/25 05:36:08;;;;;;;4.55;2.38;;;;;;;31.34;28.24;99757.81;4956276;29;20436;-72
2022/06/25 05:38:36;;;;;;;7.35;2.53;;;;;;;31.87;28.74;99756.84;4956023;29;20039;-72
2022/06/25 05:41:08;;;;;;;4.50;2.50;;;;;;;31.95;29.68;99761.16;4956176;29;20062;-72
2022/06/25 05:43:36;;;;;;;3.72;2.20;;;;;;;31.22;30.27;99768.00;4955935;29;20058;-73
2022/06/25 05:46:05;;;;;;;5.40;2.70;;;;;;;31.65;29.55;99766.78;4955912;29;20035;-74
2022/06/25 05:48:34;;;;;;;4.78;2.20;;;;;;;31.60;29.57;99766.69;4955929;29;20046;-73
2022/06/25 05:51:03;;;;;;;4.78;2.25;;;;;;;32.01;28.98;99760.16;4956232;29;20362;-72
2022/06/25 05:53:32;;;;;;;4.47;2.50;;;;;;;31.65;28.52;99771.44;4955567;29;20039;-73
2022/06/25 05:56:01;;;;;;;4.00;2.45;;;;;;;32.52;27.14;99768.63;4955825;29;20047;-73
2022/06/25 05:58:29;;;;;;;4.45;2.20;;;;;;;32.49;27.45;99764.44;4955480;29;20043;-74
2022/06/25 06:00:57;;;;;;;5.50;2.30;;;;;;;32.28;27.46;99768.69;4955792;28;20079;-74
2022/06/25 06:03:25;;;;;;;6.82;2.08;;;;;;;33.21;26.76;99761.88;4955745;29;20043;-73
2022/06/25 06:05:53;;;;;;;3.83;2.08;;;;;;;33.45;25.91;99768.06;4955697;29;20046;-72
2022/06/25 06:08:22;;;;;;;4.18;2.33;;;;;;;33.16;25.71;99766.47;4955778;29;20469;-73
2022/06/25 06:10:51;;;;;;;4.35;2.20;;;;;;;32.93;26.33;99762.78;4955300;29;20039;-73
2022/06/25 06:13:19;;;;;;;3.60;2.05;;;;;;;33.86;24.68;99768.63;4955329;29;20043;-71
2022/06/25 06:15:47;;;;;;;4.97;2.45;;;;;;;33.51;24.95;99772.59;4955262;29;20058;-72
2022/06/25 06:18:15;;;;;;;4.85;2.35;;;;;;;33.46;25.14;99778.03;4938312;29;20047;-75
2022/06/25 06:20:44;;;;;;;4.38;2.30;;;;;;;33.39;24.80;99779.28;4955069;29;20043;-74
2022/06/25 06:23:12;;;;;;;4.57;2.30;;;;;;;33.05;25.66;99772.91;4955632;29;20035;-76
2022/06/25 06:25:40;;;;;;;5.00;2.30;;;;;;;33.59;25.42;99763.03;4955229;29;20424;-75
2022/06/25 06:28:09;;;;;;;4.93;2.30;;;;;;;34.14;23.72;99765.69;4938335;29;20097;-74
2022/06/25 06:30:37;;;;;;;4.40;2.30;;;;;;;33.74;25.43;99770.69;4954849;29;20070;-75
2022/06/25 06:33:06;;;;;;;4.45;2.28;;;;;;;34.06;24.83;99762.56;4955285;29;20122;-73
2022/06/25 06:35:34;;;;;;;6.35;2.40;;;;;;;33.94;25.18;99765.44;4955110;29;20049;-74
2022/06/25 06:38:02;;;;;;;3.80;2.38;;;;;;;34.22;24.52;99769.94;4955192;29;20045;-75
2022/06/25 06:40:30;;;;;;;4.03;2.33;;;;;;;34.77;23.94;99768.06;4955246;29;20079;-73
2022/06/25 06:42:58;;;;;;;7.68;2.58;;;;;;;35.02;23.82;99765.53;4955000;29;20050;-73
2022/06/25 06:45:29;;;;;;;3.95;2.35;;;;;;;34.25;24.83;99765.81;4967849;28;20377;-70
2022/06/25 06:47:57;;;;;;;6.78;2.45;;;;;;;33.44;25.45;99755.34;4974215;28;20345;-73
2022/06/25 06:50:25;;;;;;;5.38;2.30;;;;;;;33.79;25.15;99768.00;4956907;28;20051;-75
2022/06/25 06:52:53;;;;;;;5.38;2.70;;;;;;;33.97;25.08;99770.50;4974236;28;20042;-76
2022/06/25 06:55:22;;;;;;;5.40;2.40;;;;;;;33.94;25.85;99776.53;4974377;28;20039;-75
2022/06/25 06:57:51;;;;;;;5.40;2.60;;;;;;;33.36;25.66;99774.28;4974227;28;20105;-79
2022/06/25 07:00:19;;;;;;;4.10;2.45;;;;;;;32.77;27.12;99773.78;4973880;28;20105;-77
2022/06/25 07:02:49;;;;;;;8.00;2.83;;;;;;;32.89;26.63;99774.56;4974010;28;20484;-73
2022/06/25 07:05:17;;;;;;;6.35;2.70;;;;;;;32.09;27.38;99775.50;4974255;28;20399;-74
2022/06/25 07:07:47;;;;;;;4.80;2.85;;;;;;;31.11;29.07;99771.56;4974175;28;20039;-74
2022/06/25 07:10:18;;;;;;;5.07;2.58;;;;;;;30.66;29.92;99783.06;4973806;28;20066;-74
2022/06/25 07:12:46;;;;;;;5.63;2.50;;;;;;;30.66;30.68;99783.06;4976951;28;20038;-73
2022/06/25 07:15:14;;;;;;;7.03;2.70;;;;;;;29.90;31.78;99778.09;4977895;28;20487;-72
2022/06/25 07:17:42;;;;;;;6.63;2.88;;;;;;;30.08;31.57;99786.38;4977450;28;20039;-71
2022/06/25 07:20:14;;;;;;;5.65;2.90;;;;;;;30.14;31.81;99785.47;4974346;28;20038;-72
2022/06/25 07:22:42;;;;;;;6.38;3.10;;;;;;;29.25;33.17;99799.69;4959206;28;20039;-71
2022/06/25 07:25:10;;;;;;;6.85;2.83;;;;;;;28.81;33.58;99790.47;4977683;28;20066;-71
2022/06/25 07:27:39;;;;;;;7.80;2.92;;;;;;;28.90;33.53;99789.19;4977330;28;20117;-71
2022/06/25 07:30:08;;;;;;;6.07;2.72;;;;;;;28.47;34.41;99795.34;4977173;28;20384;-71
2022/06/25 07:32:38;;;;;;;6.80;3.00;;;;;;;29.01;33.19;99806.84;4975274;28;20043;-70
2022/06/25 07:35:08;;;;;;;5.22;2.85;;;;;;;29.00;33.20;99800.50;4959887;28;20043;-72
2022/06/25 07:37:42;;;;;;;5.78;2.65;;;;;;;28.80;33.21;99805.25;4977440;28;20395;-73
2022/06/25 07:40:16;;;;;;;4.75;2.80;;;;;;;28.62;34.01;99799.69;4977751;28;20395;-73
2022/06/25 07:42:44;;;;;;;7.10;2.80;;;;;;;28.77;34.05;99794.75;4977548;28;20090;-68
2022/06/25 07:45:12;;;;;;;5.50;2.83;;;;;;;28.48;34.00;99791.53;4977746;28;20035;-70
2022/06/25 07:47:40;;;;;;;5.68;2.80;;;;;;;28.18;34.86;99790.38;4977291;28;20125;-70
2022/06/25 07:52:57;;;;;;;6.45;2.95;;;;;;;28.23;34.67;99796.06;4976980;28;20070;-70
2022/06/25 07:55:25;;;;;;;5.00;2.80;;;;;;;27.98;35.53;99801.41;4977389;28;20049;-69
2022/06/25 07:57:53;;;;;;;5.25;2.65;;;;;;;28.55;35.23;99794.22;4977233;28;20035;-69
2022/06/25 08:00:22;;;;;;;6.20;2.85;;;;;;;28.45;34.88;99802.94;4977256;28;20073;-71
2022/06/25 08:02:50;;;;;;;5.72;2.67;;;;;;;28.57;35.25;99811.34;4976731;28;20042;-68
2022/06/25 08:05:18;;;;;;;5.22;2.67;;;;;;;28.15;35.69;99815.50;4976878;28;20502;-68
2022/06/25 08:07:48;;;;;;;5.00;2.70;;;;;;;28.08;35.51;99820.16;4976715;28;20123;-68
2022/06/25 08:10:19;;;;;;;4.68;2.83;;;;;;;27.98;35.61;99830.72;4976557;28;20058;-68
2022/06/25 08:12:47;;;;;;;7.10;3.13;;;;;;;27.97;35.84;99826.31;4959028;28;20487;-68
2022/06/25 08:15:16;;;;;;;5.25;3.33;;;;;;;28.05;35.83;99828.81;4976971;28;20064;-67
2022/06/25 08:17:45;;;;;;;7.63;3.10;;;;;;;28.19;35.46;99827.72;4976663;28;20100;-68
2022/06/25 08:20:14;;;;;;;5.38;2.95;;;;;;;28.05;37.02;99823.34;4976824;28;20130;-68
2022/06/25 08:22:43;;;;;;;8.48;3.30;;;;;;;28.32;36.07;99833.19;4976333;28;20051;-68
2022/06/25 08:25:11;;;;;;;4.88;2.78;;;;;;;28.04;36.57;99821.66;4976912;28;20403;-67
2022/06/25 08:27:46;;;;;;;8.50;3.33;;;;;;;27.95;37.01;99824.63;4976454;28;20038;-68
2022/06/25 08:30:15;;;;;;;5.82;3.05;;;;;;;27.83;36.91;99829.09;4976851;28;20066;-68
2022/06/25 08:32:44;;;;;;;5.22;3.28;;;;;;;27.78;37.00;99823.41;4976345;28;20049;-67
2022/06/25 08:35:12;;;;;;;6.40;3.40;;;;;;;27.80;37.48;99837.75;4976187;28;20471;-68
2022/06/25 08:37:44;;;;;;;6.75;3.10;;;;;;;28.11;37.53;99834.28;4976464;28;20043;-68
2022/06/25 08:40:13;;;;;;;6.77;3.40;;;;;;;28.08;37.34;99844.81;4976685;28;20043;-68
2022/06/25 08:42:42;;;;;;;6.63;3.22;;;;;;;28.04;37.44;99838.94;4976327;28;20051;-68
2022/06/25 08:45:11;;;;;;;8.30;3.80;;;;;;;28.08;38.29;99839.34;4976219;28;20054;-68
2022/06/25 08:47:44;;;;;;;7.72;3.85;;;;;;;28.49;38.70;99848.09;4976329;28;20377;-68
2022/06/25 08:50:16;;;;;;;5.85;3.50;;;;;;;28.76;38.63;99837.81;4976601;28;20051;-68
2022/06/25 08:52:46;;;;;;;6.95;3.42;;;;;;;28.66;38.35;99842.06;4958699;28;20073;-68
2022/06/25 08:55:22;;;;;;;5.65;3.55;;;;;;;28.40;39.59;99860.38;4976244;28;20046;-68
2022/06/25 08:57:50;;;;;;;8.10;3.42;;;;;;;28.14;40.79;99843.97;4976114;28;20039;-67
2022/06/25 09:00:20;;;;;;;6.45;3.90;;;;;;;28.43;41.05;99846.19;4976019;28;20133;-68
2022/06/25 09:02:51;;;;;;;9.95;4.15;;;;;;;28.47;41.05;99847.47;4976212;28;20047;-68
2022/06/25 09:05:26;;;;;;;8.52;4.30;;;;;;;28.33;41.92;99843.09;4975932;28;20051;-67
2022/06/25 09:07:56;;;;;;;7.63;4.20;;;;;;;28.19;43.44;99847.75;4975958;28;20099;-67
2022/06/25 09:10:27;;;;;;;7.30;4.07;;;;;;;28.46;42.71;99837.53;4958987;28;20102;-67
2022/06/25 09:12:58;;;;;;;10.07;4.40;;;;;;;28.01;43.92;99841.28;4975792;28;20043;-67
2022/06/25 09:15:31;;;;;;;11.38;4.35;;;;;;;28.06;44.19;99846.94;4975647;28;20459;-67
2022/06/25 09:18:07;;;;;;;11.23;4.45;;;;;;;27.99;44.60;99843.38;4975409;28;20039;-70
2022/06/25 09:20:36;;;;;;;7.38;4.13;;;;;;;28.16;43.81;99839.09;4957861;28;20082;-69
2022/06/25 09:23:06;;;;;;;11.48;4.38;;;;;;;28.24;45.19;99847.94;4975658;28;20065;-67
2022/06/25 09:25:37;;;;;;;7.85;4.25;;;;;;;28.31;45.11;99845.22;4958594;28;20055;-67
2022/06/25 09:28:06;;;;;;;9.38;3.70;;;;;;;28.01;46.25;99849.50;4975502;28;20050;-64
2022/06/25 09:30:36;;;;;;;8.52;4.05;;;;;;;28.21;45.96;99847.53;4975555;28;20483;-66
2022/06/25 09:33:04;;;;;;;6.85;4.15;;;;;;;28.04;45.59;99846.31;4975418;28;20047;-66
2022/06/25 09:35:34;;;;;;;11.38;4.20;;;;;;;27.57;47.75;99840.91;4974596;28;20046;-65
2022/06/25 09:38:05;;;;;;;6.60;4.22;;;;;;;27.52;47.37;99848.94;4975290;28;20043;-68
2022/06/25 09:40:34;;;;;;;9.05;4.20;;;;;;;27.76;47.40;99841.97;4975443;28;20121;-65
2022/06/25 09:43:12;;;;;;;8.23;4.18;;;;;;;28.19;46.69;99842.28;4975045;28;20042;-66
2022/06/25 09:45:44;;;;;;;7.43;4.07;;;;;;;28.15;47.69;99841.00;4957938;28;20141;-65
2022/06/25 09:48:19;;;;;;;7.35;4.00;;;;;;;28.43;46.65;99837.97;4975302;28;20046;-67
2022/06/25 09:51:05;;;;;;;6.72;4.15;;;;;;;28.76;46.48;99839.72;4975104;28;20039;-66
2022/06/25 09:53:34;;;;;;;7.35;4.07;;;;;;;28.61;46.03;99833.66;4974430;28;20054;-71
2022/06/25 09:56:04;;;;;;;6.03;3.88;;;;;;;28.85;46.22;99830.13;4974553;28;20070;-69
2022/06/25 09:58:34;;;;;;;8.35;4.22;;;;;;;28.62;46.06;99825.22;4975166;28;20054;-69
2022/06/25 10:01:04;;;;;;;7.82;3.67;;;;;;;28.74;46.38;99828.94;4975140;28;20054;-68
2022/06/25 10:03:35;;;;;;;8.20;4.03;;;;;;;29.16;45.92;99829.31;4975432;28;20066;-72
2022/06/25 10:06:04;;;;;;;8.00;3.75;;;;;;;29.33;44.42;99832.34;4969581;28;20567;-70
2022/06/25 10:08:33;;;;;;;9.52;4.30;;;;;;;29.28;44.46;99829.44;4973757;28;20098;-70
2022/06/25 10:11:05;;;;;;;7.95;4.05;;;;;;;29.36;44.95;99821.75;4974229;28;20039;-70
2022/06/25 10:13:34;;;;;;;5.73;3.50;;;;;;;29.11;45.58;99822.81;4956536;28;20105;-70
2022/06/25 10:16:04;;;;;;;6.05;3.85;;;;;;;28.69;45.79;99819.69;4973808;28;20686;-70
2022/06/25 10:18:36;;;;;;;5.72;3.80;;;;;;;28.79;46.25;99825.53;4972657;28;20035;-70
2022/06/25 10:21:04;;;;;;;6.70;3.60;;;;;;;28.66;47.25;99826.47;4973776;28;20046;-71
2022/06/25 10:23:40;;;;;;;6.60;3.53;;;;;;;28.71;46.82;99820.31;4966758;28;20046;-70
2022/06/25 10:26:10;;;;;;;6.35;3.50;;;;;;;29.00;46.20;99816.13;4962403;28;20237;-71
2022/06/25 10:28:41;;;;;;;8.40;3.67;;;;;;;29.10;46.27;99813.72;4973050;28;20049;-70
2022/06/25 10:31:16;;;;;;;4.95;3.20;;;;;;;28.65;47.00;99807.47;4956039;28;20054;-76
2022/06/25 10:33:57;;;;;;;7.63;3.47;;;;;;;28.80;46.88;99810.75;4973517;28;20094;-74
2022/06/25 10:36:42;;;;;;;8.10;3.08;;;;;;;28.27;48.16;99802.78;4973402;28;20054;-74
2022/06/25 10:39:36;;;;;;;4.90;3.22;;;;;;;28.26;48.10;99801.09;4973554;28;20042;-76
2022/06/25 10:45:55;;;;;;;3.97;2.80;;;;;;;28.34;48.32;99798.13;4948651;28;20047;-76
2022/06/25 10:48:27;;;;;;;7.00;3.50;;;;;;;28.51;47.75;99796.56;4973399;28;20042;-77
2022/06/25 10:50:55;;;;;;;6.88;3.50;;;;;;;28.39;47.40;99797.50;4973536;28;20400;-77
2022/06/25 10:53:25;;;;;;;8.75;3.42;;;;;;;28.21;48.13;99785.31;4973228;28;20055;-75
2022/06/25 10:56:17;;;;;;;5.93;3.28;;;;;;;28.74;47.37;99785.03;4972797;28;20035;-79
2022/06/25 10:58:48;;;;;;;5.70;3.17;;;;;;;28.67;46.79;99788.91;4971617;28;20559;-73
2022/06/25 11:01:28;;;;;;;6.22;3.00;;;;;;;28.22;47.35;99791.63;4973640;28;20517;-73
2022/06/25 11:04:00;;;;;;;5.60;2.97;;;;;;;28.44;47.29;99795.75;4956161;28;20057;-75
2022/06/25 11:06:30;;;;;;;6.83;3.10;;;;;;;28.42;47.14;99800.63;4973390;28;20061;-72
2022/06/25 11:09:06;;;;;;;6.05;3.00;;;;;;;28.40;47.23;99783.56;4955629;28;20042;-78
2022/06/25 11:11:35;;;;;;;7.07;3.28;;;;;;;28.43;47.03;99788.59;4973570;28;20129;-75
2022/06/25 11:14:12;;;;;;;7.70;3.15;;;;;;;28.41;46.87;99785.25;4956306;28;20077;-73
2022/06/25 11:16:40;;;;;;;7.68;3.17;;;;;;;28.46;46.93;99793.63;4972773;28;20039;-75
2022/06/25 11:19:11;;;;;;;4.70;2.70;;;;;;;28.61;45.82;99784.28;4973487;28;20098;-74
2022/06/25 11:21:42;;;;;;;7.85;3.20;;;;;;;28.01;47.36;99797.44;4971233;28;20043;-72
2022/06/25 11:24:16;;;;;;;6.82;2.95;;;;;;;27.90;47.75;99791.56;4974063;28;20047;-69
2022/06/25 11:29:36;;;;;;;8.52;2.90;;;;;;;28.20;46.34;99793.75;4973631;28;20050;-73
2022/06/25 11:32:05;;;;;;;6.22;2.92;;;;;;;28.38;46.60;99806.78;4973968;28;20062;-70
2022/06/25 11:34:36;;;;;;;5.43;2.75;;;;;;;28.03;46.40;99809.00;4956676;28;20050;-73
2022/06/25 11:37:09;;;;;;;4.53;2.60;;;;;;;28.14;46.35;99789.13;4973107;28;20047;-73
2022/06/25 11:39:40;;;;;;;4.75;2.60;;;;;;;28.36;45.45;99798.75;4973589;28;20050;-73
2022/06/25 11:42:10;;;;;;;6.60;2.70;;;;;;;28.63;45.09;99793.13;4973473;28;20043;-73
2022/06/25 11:44:44;;;;;;;5.18;2.53;;;;;;;28.32;45.14;99792.03;4956585;28;20057;-74
2022/06/25 11:47:14;;;;;;;5.30;2.40;;;;;;;28.41;44.75;99790.72;4973890;28;20496;-73
2022/06/25 11:49:47;;;;;;;5.20;2.63;;;;;;;28.40;44.70;99783.56;4973721;28;20077;-77
2022/06/25 11:52:17;;;;;;;8.18;2.80;;;;;;;28.09;45.84;99792.53;4974003;28;20069;-73
2022/06/25 11:54:47;;;;;;;4.60;2.35;;;;;;;27.91;45.83;99795.97;4973454;28;20055;-74
2022/06/25 11:57:18;;;;;;;6.97;2.75;;;;;;;28.20;46.10;99785.53;4973908;28;20085;-73
2022/06/25 11:59:47;;;;;;;6.75;2.55;;;;;;;28.50;44.80;99778.44;4977314;28;20457;-74
2022/06/25 12:02:16;;;;;;;3.72;2.45;;;;;;;28.62;44.84;99784.06;4977186;28;20065;-73